Time;durP1;ratioP1;P1;durP2;ratioP2;P2;SDS_P1;SDS_P2;PMS_P1;PMS_P2;Temp;Humidity;BMP_temperature;BMP_pressure;BME280_temperature;BME280_humidity;BME280_pressure;Samples;Min_cycle;Max_cycle;Signal;HPM_P1;HPM_P2
2022/01/13 00:01:54;;;;;;;29.33;16.77;;;;;;;-0.62;73.67;100277.56;5005124;28;20065;-64
2022/01/13 00:04:19;;;;;;;31.40;17.35;;;;;;;-0.67;73.65;100260.66;5007479;28;20067;-69
2022/01/13 00:06:45;;;;;;;33.30;18.15;;;;;;;-1.00;73.66;100209.41;4954998;28;20029;-65
2022/01/13 00:09:11;;;;;;;48.42;24.38;;;;;;;-0.62;73.32;100274.16;5014891;28;20492;-67
2022/01/13 00:11:36;;;;;;;62.85;28.23;;;;;;;-1.11;74.26;100219.00;5011618;28;20037;-66
2022/01/13 00:19:16;;;;;;;51.10;24.65;;;;;;;-0.88;75.56;100275.53;5015207;28;20044;-66
2022/01/13 00:22:02;;;;;;;51.75;24.00;;;;;;;-0.73;75.77;100289.72;5008257;28;20030;-65
2022/01/13 00:24:27;;;;;;;38.58;21.35;;;;;;;-0.71;76.00;100293.09;5010289;28;20033;-65
2022/01/13 00:26:54;;;;;;;39.38;20.13;;;;;;;-0.62;77.31;100292.03;5036174;28;20025;-64
2022/01/13 00:29:26;;;;;;;38.92;18.20;;;;;;;-0.56;78.26;100307.25;5048195;28;20025;-65
2022/01/13 00:31:52;;;;;;;21.70;14.55;;;;;;;-0.41;79.19;100296.69;5045257;28;20026;-68
2022/01/13 00:34:17;;;;;;;31.08;16.65;;;;;;;-0.34;77.67;100294.00;5015530;28;20434;-67
2022/01/13 00:36:42;;;;;;;31.15;17.20;;;;;;;-0.30;77.48;100299.00;4975100;28;20687;-68
2022/01/13 00:39:11;;;;;;;28.58;15.55;;;;;;;-0.30;80.20;100290.50;4987648;28;20057;-64
2022/01/13 00:41:36;;;;;;;22.50;14.00;;;;;;;-0.51;79.90;100243.25;5050876;28;20033;-66
2022/01/13 00:44:04;;;;;;;26.95;14.82;;;;;;;-0.14;79.86;100293.53;5024553;28;20029;-67
2022/01/13 00:46:40;;;;;;;27.67;15.15;;;;;;;-0.10;78.33;100280.63;5005758;28;20056;-65
2022/01/13 00:49:06;;;;;;;22.75;13.60;;;;;;;-0.45;78.38;100241.41;5032618;28;20048;-63
2022/01/13 00:51:31;;;;;;;26.85;14.45;;;;;;;-0.28;79.67;100275.97;5019027;28;20472;-67
2022/01/13 00:54:03;;;;;;;24.60;14.57;;;;;;;-0.23;81.12;100280.09;4986439;28;20365;-66
2022/01/13 00:56:28;;;;;;;22.50;14.02;;;;;;;-0.15;80.71;100286.75;5018933;28;20029;-66
2022/01/13 00:58:54;;;;;;;21.85;13.27;;;;;;;-0.18;80.13;100274.03;5007554;28;20473;-68
2022/01/13 01:01:19;;;;;;;23.10;13.48;;;;;;;-0.18;79.28;100277.44;5025460;28;20025;-65
2022/01/13 01:03:45;;;;;;;27.48;14.25;;;;;;;-0.15;79.12;100285.00;5007623;28;20030;-66
2022/01/13 01:06:10;;;;;;;19.80;12.15;;;;;;;-0.53;79.23;100227.97;5026809;28;20514;-66
2022/01/13 01:08:36;;;;;;;20.45;12.57;;;;;;;-0.46;79.07;100229.50;4972922;28;20688;-65
2022/01/13 01:11:03;;;;;;;22.67;13.15;;;;;;;-0.18;78.02;100280.00;5021953;28;20136;-67
2022/01/13 01:13:32;;;;;;;20.50;12.23;;;;;;;-0.14;78.39;100288.44;5026515;28;20026;-65
2022/01/13 01:16:00;;;;;;;18.73;12.13;;;;;;;-0.22;79.29;100286.03;5025010;28;20068;-66
2022/01/13 01:23:38;;;;;;;;;;;;;;;-0.29;78.99;100298.13;5022829;28;20650;-65
2022/01/13 01:26:09;;;;;;;24.95;13.32;;;;;;;-0.31;78.69;100299.03;5018374;28;19951;-66
2022/01/13 01:28:44;;;;;;;26.10;13.93;;;;;;;-0.24;78.79;100305.69;5027157;28;20140;-65
2022/01/13 01:31:11;;;;;;;27.33;14.70;;;;;;;-0.26;78.96;100308.28;5020811;28;20029;-67
2022/01/13 01:33:40;;;;;;;31.10;15.60;;;;;;;-0.23;78.80;100304.81;5020827;28;20040;-66
2022/01/13 01:36:11;;;;;;;32.50;15.70;;;;;;;-0.24;78.72;100304.00;5026130;28;20026;-64
2022/01/13 01:38:36;;;;;;;24.75;14.00;;;;;;;-0.30;80.01;100304.09;5024388;28;20298;-65
2022/01/13 01:41:02;;;;;;;24.63;13.52;;;;;;;-0.33;79.96;100286.31;4974423;28;20034;-66
2022/01/13 01:43:27;;;;;;;23.02;13.40;;;;;;;-0.28;79.96;100302.34;5011510;28;20029;-66
2022/01/13 01:45:54;;;;;;;21.27;12.35;;;;;;;-0.19;80.28;100301.31;5022022;28;20033;-65
2022/01/13 01:48:20;;;;;;;19.42;11.57;;;;;;;-0.06;78.92;100294.19;5035142;28;20025;-66
2022/01/13 01:50:54;;;;;;;18.20;11.55;;;;;;;0.06;78.85;100304.13;5026308;28;20075;-65
2022/01/13 01:53:21;;;;;;;17.77;11.27;;;;;;;0.23;78.08;100302.88;5024871;28;20492;-65
2022/01/13 01:55:47;;;;;;;16.25;10.57;;;;;;;-0.12;77.51;100231.25;5000870;28;21108;-67
2022/01/13 01:58:12;;;;;;;15.85;10.52;;;;;;;0.35;77.30;100300.03;5003831;28;20107;-65
2022/01/13 02:00:38;;;;;;;16.73;10.05;;;;;;;0.40;76.41;100302.47;5024847;28;20025;-65
2022/01/13 02:03:06;;;;;;;18.95;10.80;;;;;;;0.36;76.71;100305.09;5008342;28;20475;-67
2022/01/13 02:05:32;;;;;;;17.75;11.20;;;;;;;-0.03;77.70;100237.88;5021109;28;20033;-67
2022/01/13 02:07:57;;;;;;;17.98;10.95;;;;;;;0.51;78.09;100306.44;5008292;28;20036;-66
2022/01/13 02:10:23;;;;;;;17.73;11.20;;;;;;;0.43;77.60;100302.38;5007097;28;20029;-66
2022/01/13 02:12:52;;;;;;;16.80;10.80;;;;;;;0.44;77.52;100293.81;4987824;28;20021;-64
2022/01/13 02:15:35;;;;;;;19.23;11.32;;;;;;;0.51;77.29;100315.81;5057066;28;20025;-66
2022/01/13 02:18:04;;;;;;;17.90;10.38;;;;;;;0.46;77.37;100318.50;5035451;28;20034;-65
2022/01/13 02:20:53;;;;;;;16.23;10.38;;;;;;;0.45;76.79;100314.25;5025437;28;20064;-65
2022/01/13 02:23:46;;;;;;;17.00;9.97;;;;;;;0.51;77.25;100315.81;5009052;28;20064;-64
2022/01/13 02:26:12;;;;;;;16.40;10.13;;;;;;;0.45;77.40;100305.75;5005923;28;20752;-65
2022/01/13 02:28:38;;;;;;;17.73;11.25;;;;;;;0.44;77.60;100306.59;4963694;28;20052;-64
2022/01/13 02:31:04;;;;;;;17.67;10.68;;;;;;;0.41;78.31;100315.22;5039835;28;20132;-67
2022/01/13 02:33:30;;;;;;;17.05;10.45;;;;;;;0.44;78.00;100298.94;5024943;28;20132;-64
2022/01/13 02:35:55;;;;;;;17.70;9.82;;;;;;;0.47;77.89;100309.94;5033899;28;20167;-64
2022/01/13 02:38:21;;;;;;;17.08;10.98;;;;;;;0.50;77.37;100293.69;5019469;28;20103;-66
2022/01/13 02:40:57;;;;;;;17.20;10.45;;;;;;;0.49;77.44;100285.16;5023691;28;20117;-66
2022/01/13 02:43:25;;;;;;;15.07;10.55;;;;;;;0.50;77.26;100298.78;4985753;28;20967;-68
2022/01/13 02:46:18;;;;;;;14.90;10.15;;;;;;;0.45;76.95;100283.53;4978594;28;20029;-64
2022/01/13 02:48:44;;;;;;;17.70;10.60;;;;;;;0.49;76.86;100285.16;5007539;28;20026;-65
2022/01/13 02:51:09;;;;;;;14.27;9.57;;;;;;;0.52;77.48;100295.31;5016385;28;20369;-67
2022/01/13 02:53:34;;;;;;;18.13;11.07;;;;;;;0.45;77.12;100286.09;5016651;28;20030;-65
2022/01/13 02:56:05;;;;;;;15.20;10.27;;;;;;;0.42;77.15;100301.56;5007525;28;20018;-65
2022/01/13 02:58:35;;;;;;;19.85;10.55;;;;;;;0.28;76.16;100266.06;5022884;28;20116;-64
2022/01/13 03:01:01;;;;;;;15.50;9.88;;;;;;;0.47;76.42;100307.38;5005905;28;20041;-64
2022/01/13 03:03:29;;;;;;;16.33;10.18;;;;;;;0.50;76.79;100320.09;5024157;28;20029;-65
2022/01/13 03:05:54;;;;;;;16.08;10.07;;;;;;;0.45;76.63;100314.25;5016552;28;20444;-65
2022/01/13 03:08:20;;;;;;;15.82;10.40;;;;;;;0.23;76.55;100269.63;5002884;28;20025;-64
2022/01/13 03:10:45;;;;;;;15.23;9.32;;;;;;;0.49;76.09;100307.34;5057572;28;20484;-64
2022/01/13 03:13:11;;;;;;;15.90;10.10;;;;;;;0.44;75.99;100314.28;5024166;28;20028;-64
2022/01/13 03:15:36;;;;;;;15.25;10.13;;;;;;;0.56;75.34;100319.94;5020852;28;20062;-65
2022/01/13 03:18:02;;;;;;;15.02;9.52;;;;;;;0.43;75.79;100307.50;5023479;28;20040;-66
2022/01/13 03:20:27;;;;;;;15.13;9.18;;;;;;;0.52;75.97;100322.63;5002817;28;20491;-65
2022/01/13 03:22:53;;;;;;;16.25;9.38;;;;;;;0.52;74.88;100325.19;5007868;28;20017;-64
2022/01/13 03:25:22;;;;;;;15.43;9.77;;;;;;;0.37;75.58;100329.81;5024815;28;20070;-64
2022/01/13 03:27:56;;;;;;;;;;;;;;;0.51;75.24;100331.19;5023954;28;20078;-66
2022/01/13 03:30:22;;;;;;;14.43;9.20;;;;;;;0.46;75.28;100340.72;5048809;28;19924;-64
2022/01/13 03:32:47;;;;;;;16.38;9.38;;;;;;;0.38;75.68;100322.97;5017901;28;20037;-64
2022/01/13 03:35:13;;;;;;;14.07;8.75;;;;;;;0.47;74.90;100334.69;5006406;28;20076;-65
2022/01/13 03:37:39;;;;;;;13.60;9.10;;;;;;;0.32;75.59;100323.13;5020680;28;20121;-66
2022/01/13 03:40:05;;;;;;;14.13;8.88;;;;;;;0.33;75.37;100329.94;5004506;28;20303;-67
2022/01/13 03:42:30;;;;;;;11.43;8.02;;;;;;;0.49;74.43;100327.81;5019378;28;20033;-65
2022/01/13 03:44:56;;;;;;;14.45;9.73;;;;;;;0.49;74.81;100326.13;5023973;28;20025;-64
2022/01/13 03:47:22;;;;;;;14.38;9.25;;;;;;;0.52;73.77;100325.19;4978556;28;20832;-68
2022/01/13 03:49:47;;;;;;;13.95;8.85;;;;;;;0.55;73.69;100332.81;4996065;28;20039;-65
2022/01/13 03:52:35;;;;;;;15.80;8.77;;;;;;;0.54;73.41;100337.06;5025295;28;20490;-65
2022/01/13 03:55:31;;;;;;;16.17;9.23;;;;;;;0.57;74.12;100334.44;5016007;28;20207;-65
2022/01/13 03:58:34;;;;;;;13.43;8.50;;;;;;;0.70;71.83;100332.38;5012653;28;20029;-65
2022/01/13 04:01:18;;;;;;;14.60;8.73;;;;;;;0.45;73.26;100319.38;5019196;28;20844;-67
2022/01/13 04:03:44;;;;;;;12.95;8.25;;;;;;;0.52;73.55;100328.59;5006586;28;20520;-65
2022/01/13 04:06:16;;;;;;;14.80;8.88;;;;;;;0.59;74.23;100329.28;5005597;28;20060;-65
2022/01/13 04:08:42;;;;;;;17.88;8.95;;;;;;;0.53;73.35;100316.63;5023425;28;20048;-67
2022/01/13 04:11:17;;;;;;;14.70;9.00;;;;;;;0.16;73.30;100272.34;5006950;28;20100;-64
2022/01/13 04:14:02;;;;;;;15.27;8.93;;;;;;;0.41;73.96;100328.03;5003480;28;20779;-65
2022/01/13 04:16:31;;;;;;;14.30;8.38;;;;;;;0.54;73.64;100329.38;5022786;28;20022;-64
2022/01/13 04:19:04;;;;;;;14.00;8.82;;;;;;;0.22;73.63;100283.28;4976341;28;20033;-68
2022/01/13 04:21:39;;;;;;;14.40;8.52;;;;;;;0.36;74.80;100311.94;5003076;28;20104;-65
2022/01/13 04:24:06;;;;;;;14.20;9.00;;;;;;;0.44;75.19;100325.38;5022329;28;20076;-65
2022/01/13 04:26:33;;;;;;;12.50;8.32;;;;;;;0.44;75.38;100329.66;5007358;28;20026;-64
2022/01/13 04:29:30;;;;;;;13.27;8.55;;;;;;;0.39;75.94;100332.34;5021689;28;20037;-65
2022/01/13 04:31:48;;;;;;;13.52;8.55;;;;;;;0.48;74.62;100331.28;5021400;28;20038;-65
2022/01/13 04:34:14;;;;;;;13.95;8.63;;;;;;;0.27;74.97;100305.31;5005441;28;20030;-66
2022/01/13 04:36:40;;;;;;;15.38;8.43;;;;;;;0.44;75.20;100330.50;5003632;28;20080;-65
2022/01/13 04:39:07;;;;;;;15.82;8.70;;;;;;;0.48;74.41;100324.44;5023057;28;20524;-65
2022/01/13 04:41:35;;;;;;;15.18;9.15;;;;;;;0.44;74.99;100335.63;5020395;28;20060;-65
2022/01/13 04:44:11;;;;;;;15.90;9.45;;;;;;;0.47;74.86;100327.03;5022517;28;20027;-66
2022/01/13 04:46:37;;;;;;;13.48;8.18;;;;;;;0.42;74.45;100326.28;5021842;28;20060;-65
2022/01/13 04:49:04;;;;;;;14.57;9.15;;;;;;;0.49;74.50;100336.34;5000381;28;20049;-65
2022/01/13 04:51:30;;;;;;;14.85;8.93;;;;;;;0.21;74.44;100277.34;4960468;28;20056;-64
2022/01/13 04:53:56;;;;;;;13.60;8.65;;;;;;;0.60;74.63;100340.34;5010333;28;20034;-65
2022/01/13 04:59:07;;;;;;;16.10;8.80;;;;;;;0.43;74.70;100351.84;5023281;28;20527;-64
2022/01/13 05:01:32;;;;;;;14.68;9.07;;;;;;;0.49;74.34;100345.72;5020627;28;20036;-64
2022/01/13 05:03:57;;;;;;;13.82;8.52;;;;;;;0.46;75.10;100335.59;5022867;28;20026;-64
2022/01/13 05:06:23;;;;;;;15.02;9.07;;;;;;;0.38;74.99;100321.28;5020619;28;20030;-67
2022/01/13 05:08:49;;;;;;;13.93;8.90;;;;;;;0.51;74.24;100352.50;4973619;28;20037;-64
2022/01/13 05:11:15;;;;;;;13.85;8.52;;;;;;;0.52;74.76;100345.66;5025011;28;20028;-65
2022/01/13 05:13:41;;;;;;;13.73;9.20;;;;;;;0.43;75.61;100351.84;5018416;28;20031;-64
2022/01/13 05:16:09;;;;;;;14.00;8.40;;;;;;;0.22;75.43;100314.00;5036052;28;20109;-64
2022/01/13 05:21:17;;;;;;;18.95;8.77;;;;;;;0.53;74.94;100352.44;5022944;28;20523;-65
2022/01/13 05:23:42;;;;;;;15.25;8.85;;;;;;;0.50;75.10;100355.09;5021854;28;20041;-66
2022/01/13 05:26:09;;;;;;;14.85;8.95;;;;;;;0.42;75.57;100355.31;5020334;28;20402;-64
2022/01/13 05:28:35;;;;;;;12.43;8.27;;;;;;;0.13;75.19;100297.16;5024184;28;20071;-65
2022/01/13 05:31:00;;;;;;;11.93;7.75;;;;;;;0.37;75.03;100347.72;5026211;28;20030;-65
2022/01/13 05:33:26;;;;;;;14.95;9.00;;;;;;;0.37;75.99;100363.09;5025006;28;20108;-64
2022/01/13 05:35:51;;;;;;;13.60;9.05;;;;;;;0.34;76.37;100370.00;5025703;28;20283;-65
2022/01/13 05:38:18;;;;;;;12.90;8.52;;;;;;;0.42;76.18;100368.09;5018293;28;20230;-67
2022/01/13 05:40:44;;;;;;;13.20;8.35;;;;;;;0.47;76.51;100371.38;4976943;28;20940;-63
2022/01/13 05:43:09;;;;;;;13.38;8.45;;;;;;;0.43;76.83;100371.50;5024827;28;20025;-66
2022/01/13 05:45:35;;;;;;;13.48;8.35;;;;;;;0.51;76.71;100375.56;5008228;28;20037;-63
2022/01/13 05:48:02;;;;;;;13.02;8.13;;;;;;;0.42;76.44;100373.22;5038831;28;20036;-65
2022/01/13 05:50:29;;;;;;;15.50;8.85;;;;;;;0.42;76.02;100367.25;5007633;28;20060;-65
2022/01/13 05:52:54;;;;;;;15.27;8.85;;;;;;;0.36;76.27;100361.38;5026463;28;20029;-66
2022/01/13 05:55:20;;;;;;;14.35;8.73;;;;;;;0.26;77.38;100366.78;4978294;28;20043;-66
2022/01/13 05:57:45;;;;;;;13.18;8.40;;;;;;;-0.09;76.55;100307.03;5023877;28;20032;-64
2022/01/13 06:00:13;;;;;;;14.88;8.55;;;;;;;0.21;76.90;100364.31;5025718;28;20022;-63
2022/01/13 06:02:39;;;;;;;16.15;9.05;;;;;;;0.23;77.11;100371.97;5020726;28;20026;-64
2022/01/13 06:05:07;;;;;;;16.77;9.02;;;;;;;0.24;76.92;100366.81;5002092;28;20029;-65
2022/01/13 06:07:32;;;;;;;14.82;8.63;;;;;;;0.14;77.32;100355.09;5025648;28;20535;-65
2022/01/13 06:09:58;;;;;;;12.73;8.45;;;;;;;0.16;77.58;100359.34;5002809;28;20053;-66
2022/01/13 06:12:32;;;;;;;13.65;8.77;;;;;;;0.11;77.70;100345.81;4967759;28;20675;-64
2022/01/13 06:15:03;;;;;;;12.52;7.80;;;;;;;0.14;77.75;100340.59;5013545;28;20104;-64
2022/01/13 06:17:29;;;;;;;12.85;8.23;;;;;;;0.26;77.34;100361.66;5003311;28;20029;-63
2022/01/13 06:19:55;;;;;;;14.20;8.85;;;;;;;0.32;76.62;100354.66;5013786;28;20034;-67
2022/01/13 06:22:23;;;;;;;12.73;7.90;;;;;;;0.33;77.14;100353.81;5023844;28;20029;-65
2022/01/13 06:24:49;;;;;;;13.82;8.88;;;;;;;0.36;76.42;100365.66;5005597;28;20029;-64
2022/01/13 06:27:14;;;;;;;14.52;8.13;;;;;;;0.35;76.77;100364.84;5021034;28;20075;-64
2022/01/13 06:29:40;;;;;;;12.90;8.30;;;;;;;0.34;76.50;100370.00;5016717;28;20030;-65
2022/01/13 06:32:05;;;;;;;14.63;8.38;;;;;;;0.25;76.34;100373.59;5023429;28;20029;-65
2022/01/13 06:34:31;;;;;;;14.77;8.98;;;;;;;0.22;76.56;100367.72;5005661;28;20562;-63
2022/01/13 06:36:56;;;;;;;12.32;8.05;;;;;;;0.33;76.78;100391.34;5025546;28;20393;-65
2022/01/13 06:39:22;;;;;;;12.38;7.55;;;;;;;0.14;76.47;100380.69;5006015;28;20029;-65
2022/01/13 06:41:47;;;;;;;13.95;8.90;;;;;;;0.27;77.53;100396.59;5023249;28;20080;-64
2022/01/13 06:44:13;;;;;;;12.63;8.30;;;;;;;0.38;76.56;100412.53;5020138;28;20022;-65
2022/01/13 06:46:38;;;;;;;12.70;7.88;;;;;;;0.28;76.94;100404.25;5020648;28;20029;-64
2022/01/13 06:49:03;;;;;;;13.43;8.13;;;;;;;0.34;76.07;100409.22;5023542;28;20033;-63
2022/01/13 06:51:30;;;;;;;13.27;8.45;;;;;;;0.31;76.13;100406.75;4999995;28;20599;-66
2022/01/13 06:53:56;;;;;;;13.68;8.27;;;;;;;0.35;76.58;100426.25;5020769;28;21267;-64
2022/01/13 06:56:24;;;;;;;13.15;8.45;;;;;;;0.33;76.35;100434.84;5024307;28;20040;-65
2022/01/13 06:58:50;;;;;;;14.30;8.88;;;;;;;0.31;76.53;100437.44;4996985;28;20036;-64
2022/01/13 07:01:15;;;;;;;14.73;9.15;;;;;;;0.36;76.28;100412.56;5018145;28;20034;-64
2022/01/13 07:03:41;;;;;;;14.40;8.50;;;;;;;0.36;75.71;100437.31;5012932;28;20026;-64
2022/01/13 07:06:06;;;;;;;14.13;9.07;;;;;;;0.30;76.06;100422.97;4984404;28;20025;-66
2022/01/13 07:08:33;;;;;;;13.15;8.27;;;;;;;0.25;76.03;100435.00;5007434;28;20063;-64
2022/01/13 07:11:02;;;;;;;13.02;8.23;;;;;;;0.23;76.24;100426.53;5040183;28;20053;-65
2022/01/13 07:13:27;;;;;;;13.35;8.68;;;;;;;-0.14;76.46;100375.38;5010563;28;20092;-65
2022/01/13 07:15:53;;;;;;;13.57;8.55;;;;;;;-0.14;75.78;100375.38;5009745;28;20400;-65
2022/01/13 07:18:18;;;;;;;14.52;8.68;;;;;;;0.16;76.82;100428.41;5007419;28;20029;-64
2022/01/13 07:20:45;;;;;;;13.70;8.25;;;;;;;0.27;77.01;100435.81;5011475;28;20675;-63
2022/01/13 07:23:11;;;;;;;13.13;7.90;;;;;;;0.07;75.97;100404.72;5029820;28;20060;-64
2022/01/13 07:25:36;;;;;;;13.63;9.05;;;;;;;0.19;77.05;100436.00;5019243;28;20132;-63
2022/01/13 07:28:03;;;;;;;18.20;9.60;;;;;;;-0.11;76.63;100365.91;5019998;28;20029;-65
2022/01/13 07:30:29;;;;;;;20.13;10.27;;;;;;;-0.02;75.85;100390.41;5006782;28;20045;-64
2022/01/13 07:32:54;;;;;;;19.75;10.77;;;;;;;0.12;76.26;100429.31;5002981;28;20034;-65
2022/01/13 07:35:19;;;;;;;22.23;10.68;;;;;;;-0.11;76.78;100427.28;5051082;28;20097;-65
2022/01/13 07:37:45;;;;;;;18.58;10.00;;;;;;;-0.28;76.65;100393.56;5023625;28;20045;-64
2022/01/13 07:40:15;;;;;;;19.85;10.48;;;;;;;-0.08;76.04;100418.69;5037827;28;20021;-65
2022/01/13 07:42:46;;;;;;;24.27;13.30;;;;;;;-0.03;76.83;100434.78;5007315;28;20041;-64
2022/01/13 07:45:13;;;;;;;23.48;12.48;;;;;;;-0.16;77.07;100431.66;5006203;28;20810;-64
2022/01/13 07:47:39;;;;;;;28.10;13.02;;;;;;;-0.38;76.64;100408.25;5023958;28;20064;-64
2022/01/13 07:50:06;;;;;;;29.40;15.35;;;;;;;-0.13;75.86;100448.63;5023445;28;20089;-64
2022/01/13 07:52:31;;;;;;;29.75;14.05;;;;;;;-0.07;76.37;100467.25;5033901;28;20029;-65
2022/01/13 07:54:57;;;;;;;30.48;13.80;;;;;;;-0.17;76.23;100473.44;5029350;28;20032;-64
2022/01/13 07:57:22;;;;;;;22.30;13.65;;;;;;;-0.29;76.91;100479.66;5032077;28;20041;-64
2022/01/13 07:59:48;;;;;;;29.70;14.55;;;;;;;-0.27;76.64;100472.78;4998956;28;20049;-64
2022/01/13 08:02:14;;;;;;;29.35;15.18;;;;;;;-0.29;76.77;100471.09;4985591;28;20140;-64
2022/01/13 08:04:39;;;;;;;40.58;19.75;;;;;;;-0.36;76.92;100479.81;5050246;28;20077;-66
2022/01/13 08:07:04;;;;;;;33.78;16.58;;;;;;;-0.36;76.65;100492.59;5038225;28;20128;-63
2022/01/13 08:09:30;;;;;;;31.27;15.10;;;;;;;-0.37;77.06;100501.94;5023092;28;20060;-64
2022/01/13 08:11:55;;;;;;;28.08;14.07;;;;;;;-0.83;77.29;100454.25;5022303;28;20060;-64
2022/01/13 08:14:21;;;;;;;21.88;13.43;;;;;;;-0.55;77.20;100484.41;5003078;28;20501;-64
2022/01/13 08:16:47;;;;;;;24.27;13.95;;;;;;;-0.32;77.72;100514.66;5025034;28;20053;-64
2022/01/13 08:21:57;;;;;;;27.05;13.80;;;;;;;-0.51;78.41;100511.56;5019049;28;20068;-64
2022/01/13 08:24:22;;;;;;;32.25;14.50;;;;;;;-0.75;78.09;100457.50;5021302;28;20026;-66
2022/01/13 08:26:47;;;;;;;37.72;14.10;;;;;;;-0.52;77.56;100492.84;5045166;28;20044;-66
2022/01/13 08:29:13;;;;;;;24.98;12.63;;;;;;;-0.40;77.30;100499.47;5005754;28;20424;-65
2022/01/13 08:31:38;;;;;;;37.90;14.70;;;;;;;-0.39;77.88;100499.41;4988228;28;20361;-64
2022/01/13 08:34:04;;;;;;;25.00;14.25;;;;;;;-0.54;78.53;100492.03;5019551;28;20088;-64
2022/01/13 08:36:29;;;;;;;28.60;14.70;;;;;;;-0.52;78.88;100505.63;5022155;28;20033;-65
2022/01/13 08:38:55;;;;;;;28.20;14.43;;;;;;;-0.40;79.14;100504.56;5004862;28;20048;-64
2022/01/13 08:41:20;;;;;;;27.92;14.18;;;;;;;-0.39;78.96;100504.53;5006082;28;20033;-65
2022/01/13 08:43:46;;;;;;;18.67;11.10;;;;;;;-0.44;79.47;100513.16;5024300;28;20029;-64
2022/01/13 08:46:11;;;;;;;19.17;9.77;;;;;;;-0.30;79.17;100518.00;5040147;28;20388;-64
2022/01/13 08:48:37;;;;;;;18.95;10.60;;;;;;;-0.31;79.00;100499.28;5006388;28;20048;-67
2022/01/13 08:51:04;;;;;;;19.05;10.35;;;;;;;-0.40;79.14;100463.69;5009908;28;20037;-65
2022/01/13 08:53:30;;;;;;;17.05;9.10;;;;;;;-0.18;78.21;100496.47;5008660;28;20086;-67
2022/01/13 08:55:55;;;;;;;14.70;8.27;;;;;;;-0.04;78.71;100520.91;5006753;28;20116;-65
2022/01/13 08:58:25;;;;;;;14.98;8.23;;;;;;;-0.35;78.39;100464.41;5015825;28;20174;-66
2022/01/13 09:00:52;;;;;;;14.93;8.88;;;;;;;-0.08;77.68;100463.00;5018879;28;20048;-64
2022/01/13 09:03:17;;;;;;;18.95;8.50;;;;;;;0.29;77.64;100517.66;5025811;28;20120;-65
2022/01/13 09:05:44;;;;;;;13.38;8.32;;;;;;;0.28;77.51;100514.28;5005025;28;20420;-65
2022/01/13 09:08:10;;;;;;;15.20;8.52;;;;;;;0.27;76.74;100504.91;5026587;28;20036;-67
2022/01/13 09:10:39;;;;;;;11.55;7.75;;;;;;;0.30;76.71;100506.56;5010027;28;20038;-64
2022/01/13 09:13:05;;;;;;;13.30;7.85;;;;;;;0.40;77.13;100513.16;5023991;28;20033;-65
2022/01/13 09:15:35;;;;;;;12.05;7.57;;;;;;;0.48;76.48;100518.13;5042119;28;20128;-64
2022/01/13 09:18:08;;;;;;;13.07;7.93;;;;;;;0.47;76.83;100519.00;5038948;28;20025;-65
2022/01/13 09:20:35;;;;;;;13.00;7.22;;;;;;;0.43;75.16;100517.38;5007951;28;20041;-65
2022/01/13 09:23:00;;;;;;;13.57;8.48;;;;;;;0.45;75.58;100528.41;5022658;28;20459;-65
2022/01/13 09:25:25;;;;;;;14.77;7.72;;;;;;;0.55;73.66;100524.78;5022532;28;20472;-65
2022/01/13 09:27:51;;;;;;;13.60;7.95;;;;;;;0.53;73.80;100536.75;5026899;28;20036;-63
2022/01/13 09:30:16;;;;;;;11.75;7.55;;;;;;;0.55;73.62;100542.72;5008460;28;20102;-65
2022/01/13 09:32:42;;;;;;;13.38;7.30;;;;;;;0.48;73.65;100523.25;5026242;28;20064;-64
2022/01/13 09:35:08;;;;;;;12.70;7.85;;;;;;;0.61;73.85;100545.13;5026037;28;20034;-64
2022/01/13 09:37:34;;;;;;;11.30;7.47;;;;;;;0.60;72.70;100543.44;4985429;28;20034;-64
2022/01/13 09:40:00;;;;;;;13.57;7.65;;;;;;;0.58;72.19;100545.19;5023734;28;20033;-64
2022/01/13 09:42:27;;;;;;;13.75;7.75;;;;;;;0.59;72.28;100546.03;5022285;28;20033;-65
2022/01/13 09:44:54;;;;;;;15.32;8.38;;;;;;;0.29;72.24;100492.94;5009051;28;20033;-65
2022/01/13 09:47:20;;;;;;;16.77;8.32;;;;;;;0.65;71.90;100548.47;5009288;28;20771;-65
2022/01/13 09:49:45;;;;;;;14.02;8.02;;;;;;;0.66;72.40;100545.88;5019906;28;20768;-65
2022/01/13 09:52:11;;;;;;;16.20;8.10;;;;;;;0.55;73.53;100551.22;4991084;28;20029;-65
2022/01/13 09:54:36;;;;;;;14.88;7.68;;;;;;;0.61;72.29;100552.81;5021599;28;20030;-63
2022/01/13 09:57:02;;;;;;;14.75;7.47;;;;;;;0.61;71.43;100550.25;5024059;28;20070;-64
2022/01/13 09:59:27;;;;;;;12.80;7.82;;;;;;;0.34;72.61;100480.88;5023428;28;20033;-66
2022/01/13 10:01:53;;;;;;;13.70;7.72;;;;;;;0.66;73.00;100527.13;5017922;28;20087;-65
2022/01/13 10:04:18;;;;;;;13.02;7.40;;;;;;;0.80;72.35;100544.72;5022721;28;20131;-64
2022/01/13 10:06:47;;;;;;;14.45;8.00;;;;;;;0.28;72.52;100472.50;5017215;28;23120;-65
2022/01/13 10:09:13;;;;;;;12.68;6.80;;;;;;;0.38;70.74;100512.34;4989607;28;20076;-66
2022/01/13 10:11:43;;;;;;;14.75;6.80;;;;;;;0.67;68.54;100549.25;5008668;28;20029;-64
2022/01/13 10:16:23;;;;;;;13.57;5.63;;;;;;;0.54;67.61;100531.59;5023790;28;20045;-65
2022/01/13 10:17:16;;;;;;;12.07;7.25;;;;;;;0.78;67.33;100542.16;5025155;28;20400;-65
2022/01/13 10:19:47;;;;;;;16.77;7.53;;;;;;;0.85;67.62;100542.88;5022922;28;20069;-67
2022/01/13 10:22:14;;;;;;;11.93;6.70;;;;;;;0.94;66.16;100543.50;5024418;28;20052;-67
2022/01/13 10:24:42;;;;;;;12.77;6.30;;;;;;;1.07;64.54;100554.28;4942305;28;20123;-65
2022/01/13 10:27:14;;;;;;;11.27;6.22;;;;;;;1.10;63.94;100541.41;5015099;28;20033;-64
2022/01/13 10:29:43;;;;;;;12.32;6.80;;;;;;;1.27;65.79;100558.94;5024894;28;20033;-64
2022/01/13 10:32:11;;;;;;;11.82;7.10;;;;;;;1.28;65.17;100550.38;5025851;28;20033;-66
2022/01/13 10:34:39;;;;;;;14.02;7.53;;;;;;;1.45;64.54;100567.88;5012893;28;20033;-67
2022/01/13 10:37:11;;;;;;;13.25;7.32;;;;;;;1.50;64.18;100573.75;5009854;28;20031;-66
2022/01/13 10:39:51;;;;;;;11.65;6.45;;;;;;;1.56;62.13;100567.63;4987218;28;20366;-65
2022/01/13 10:43:06;;;;;;;12.55;6.18;;;;;;;1.66;60.71;100563.94;5033554;28;20025;-64
2022/01/13 10:45:34;;;;;;;9.45;5.43;;;;;;;1.73;59.87;100559.47;5023238;28;20048;-65
2022/01/13 10:48:04;;;;;;;12.45;7.20;;;;;;;1.51;59.55;100511.31;5023229;28;20036;-65
2022/01/13 10:50:36;;;;;;;12.43;7.97;;;;;;;1.89;59.88;100559.91;5020375;28;20424;-67
2022/01/13 10:53:04;;;;;;;10.45;6.45;;;;;;;2.04;60.53;100553.50;5007925;28;20022;-65
2022/01/13 10:55:34;;;;;;;12.50;7.05;;;;;;;2.10;60.66;100541.34;5006418;28;20034;-64
2022/01/13 10:58:00;;;;;;;10.75;5.88;;;;;;;1.85;59.29;100476.22;5006636;28;20022;-66
2022/01/13 11:00:27;;;;;;;11.60;6.00;;;;;;;2.27;59.74;100534.91;5009944;28;20036;-65
2022/01/13 11:03:15;;;;;;;11.50;7.60;;;;;;;2.26;59.28;100534.06;5016572;28;20057;-65
2022/01/13 11:05:44;;;;;;;10.60;6.40;;;;;;;2.29;60.06;100530.56;5050226;28;20033;-65
2022/01/13 11:08:10;;;;;;;9.95;6.30;;;;;;;2.20;58.10;100500.03;5017880;28;20028;-65
2022/01/13 11:10:37;;;;;;;9.85;5.78;;;;;;;2.47;56.96;100534.31;5013593;28;20033;-67
2022/01/13 11:13:04;;;;;;;9.55;5.20;;;;;;;2.43;55.90;100527.59;5018273;28;20120;-65
2022/01/13 11:15:29;;;;;;;9.40;5.10;;;;;;;2.38;52.82;100522.56;5013358;28;20029;-67
2022/01/13 11:17:57;;;;;;;9.68;4.85;;;;;;;2.53;51.73;100523.84;5019990;28;20380;-65
2022/01/13 11:20:24;;;;;;;8.25;4.45;;;;;;;2.50;51.89;100518.78;5005356;28;20132;-65
2022/01/13 11:22:51;;;;;;;10.68;5.88;;;;;;;2.55;51.85;100523.78;5003855;28;20104;-65
2022/01/13 11:25:19;;;;;;;10.45;5.57;;;;;;;2.57;52.40;100510.00;5021185;28;20108;-66
2022/01/13 11:27:46;;;;;;;10.52;5.20;;;;;;;2.81;50.37;100515.25;5005144;28;20230;-64
2022/01/13 11:30:17;;;;;;;8.45;4.90;;;;;;;2.91;51.39;100506.38;5027050;28;20040;-65
2022/01/13 11:32:44;;;;;;;10.65;4.93;;;;;;;2.87;50.49;100479.13;5038355;28;20037;-65
2022/01/13 11:35:15;;;;;;;9.75;5.22;;;;;;;2.84;50.65;100446.63;5011695;28;20536;-65
2022/01/13 11:37:41;;;;;;;9.48;4.97;;;;;;;3.11;51.33;100489.47;5049431;28;20029;-64
2022/01/13 11:40:25;;;;;;;9.18;5.32;;;;;;;3.14;55.06;100490.22;5008797;28;20046;-65
2022/01/13 11:42:51;;;;;;;9.73;5.68;;;;;;;3.15;54.81;100491.03;5039559;28;20036;-65
2022/01/13 11:45:17;;;;;;;11.27;6.25;;;;;;;2.90;57.70;100432.75;5022117;28;20061;-65